Rickmers New Orleans — V7FF2 — position and weather

sailwx.info

Track history (hours):
 
Tides and Currents Weather Stations Pressure Air Temp Water Temp Dewpoint Dewpoint Depression Visibility Wind Speed Wind Dir Waves Ship Positions

Rickmers New Orleans

Last reported at 2016-Jul-23 21:06 UTC. Time now 2016-Jul-24 03:01 UTC.
Position N 42°49' E 009°42'.

Length 192.9 m; beam 27.8 m; draft 11.2 m.

Type: Ship. MMSI: 538001922.

Date/timePositionNaut miles runAvg speedWind from/ knotsBaromVisibWave heightAir tempDewpointWater temp
2016-Jul-23 21:06N 42°49' E 009°42'712.3
2016-Jul-23 20:30N 42°56' E 009°38'1112.1
2016-Jul-23 19:33N 43°07' E 009°33'1211.6
2016-Jul-23 18:33N 43°18' E 009°28'1111.1
2016-Jul-23 17:33N 43°29' E 009°23'1211.7
2016-Jul-23 16:33N 43°40' E 009°18'1211.5
2016-Jul-23 15:33N 43°51' E 009°13'1212.1
2016-Jul-23 14:33N 44°02' E 009°07'1312.6
2016-Jul-23 13:33N 44°14' E 009°01'1110.9
2016-Jul-23 12:33N 44°24' E 008°55'1 1.3
2016-Jul-23 11:33N 44°24' E 008°53'0 0.0
2016-Jul-23 10:33N 44°24' E 008°53'0 0.0
2016-Jul-23 09:30N 44°24' E 008°53'0 0.0
2016-Jul-23 08:33N 44°24' E 008°53'0 0.0
2016-Jul-23 07:33N 44°24' E 008°53'0 0.0
2016-Jul-23 06:33N 44°24' E 008°53'0 0.0
2016-Jul-23 04:33N 44°24' E 008°53'0 0.0
2016-Jul-23 03:33N 44°24' E 008°53'0 0.0
2016-Jul-23 02:33N 44°24' E 008°53'0 0.0
2016-Jul-23 01:33N 44°24' E 008°53'0 0.0
2016-Jul-23 00:33N 44°24' E 008°53'0 0.0
2016-Jul-22 23:33N 44°24' E 008°53'0 0.0
2016-Jul-22 22:33N 44°24' E 008°53'0 0.0
2016-Jul-22 21:33N 44°24' E 008°53'0 0.0
2016-Jul-22 20:33N 44°24' E 008°53'0 0.0
2016-Jul-22 19:33N 44°24' E 008°53'0 0.0
2016-Jul-22 18:33N 44°24' E 008°53'0 0.0
2016-Jul-22 17:27N 44°24' E 008°53'0 0.0
2016-Jul-22 16:30N 44°24' E 008°53'0 0.0
2016-Jul-22 15:30N 44°24' E 008°53'0 0.0
2016-Jul-22 14:33N 44°24' E 008°53'0 0.0
2016-Jul-22 13:33N 44°24' E 008°53'0 0.0
2016-Jul-22 12:33N 44°24' E 008°53'0 0.0
2016-Jul-22 11:33N 44°24' E 008°53'0 0.0
2016-Jul-22 10:33N 44°24' E 008°53'0 0.0
2016-Jul-22 09:33N 44°24' E 008°53'0 0.0
2016-Jul-22 08:33N 44°24' E 008°53'0 0.0
2016-Jul-22 07:33N 44°24' E 008°53'0 0.0
2016-Jul-22 04:30N 44°24' E 008°53'0 0.3
2016-Jul-22 03:33N 44°24' E 008°54'6 5.6
2016-Jul-22 02:34N 44°20' E 008°59'9 9.4
2016-Jul-22 01:33N 44°13' E 008°49'1111.4
2016-Jul-22 00:34N 44°06' E 008°37'1716.3
2016-Jul-21 23:30N 43°54' E 008°19'1516.0
2016-Jul-21 22:32N 43°44' E 008°04'1616.1
2016-Jul-21 21:31N 43°33' E 007°47'1616.0
2016-Jul-21 20:30N 43°22' E 007°30'7916.1
2016-Jul-21 15:33N 42°28' E 006°10'1716.5
2016-Jul-21 14:34N 42°17' E 005°54'1616.4
2016-Jul-21 13:34N 42°06' E 005°37'1616.3
2016-Jul-21 12:33N 41°55' E 005°21'2216.3
2016-Jul-21 11:11N 41°40' E 004°59'7816.1
2016-Jul-21 06:20N 40°48' E 003°42'1316.4
2016-Jul-21 05:33N 40°39' E 003°30'1716.5
2016-Jul-21 04:33N 40°28' E 003°14'1616.5
2016-Jul-21 03:33N 40°17' E 002°58'1716.7
2016-Jul-21 02:33N 40°06' E 002°42'1716.6
2016-Jul-21 01:34N 39°56' E 002°24'1717.4
2016-Jul-21 00:33N 39°44' E 002°07'1817.4
2016-Jul-20 23:33N 39°33' E 001°50'1717.4
2016-Jul-20 22:33N 39°22' E 001°32'2017.3
2016-Jul-20 21:23N 39°09' E 001°13'4716.5
2016-Jul-20 18:33N 38°31' E 000°36'1716.9
2016-Jul-20 17:33N 38°19' E 000°22'1716.7
2016-Jul-20 16:33N 38°06' E 000°08'1716.7
2016-Jul-20 15:33N 37°53' W 000°05'1717.3
2016-Jul-20 14:34N 37°40' W 000°19'1717.3
2016-Jul-20 13:33N 37°27' W 000°34'2017.0
2016-Jul-20 12:23N 37°14' W 000°53'1817.1
2016-Jul-20 11:20N 37°03' W 001°11'9041.5
2016-Jul-20 09:10N 36°18' W 002°48'2513.9
2016-Jul-20 07:20N 36°22' W 002°17'14117.0
2016-Jul-19 23:05N 36°00' W 005°09'816.3
2016-Jul-19 22:34N 35°59' W 005°20'20615.7
2016-Jul-19 09:23N 36°44' W 009°30'3116.5
2016-Jul-19 07:31N 37°14' W 009°41'5017.0
2016-Jul-19 04:33N 38°03' W 009°55'1717.3
2016-Jul-19 03:33N 38°19' W 010°00'1817.8
2016-Jul-19 02:33N 38°37' W 010°05'1917.4
2016-Jul-19 01:26N 38°56' W 010°04'1516.5
2016-Jul-19 00:32N 39°11' W 010°06'1717.1
2016-Jul-18 23:33N 39°28' W 010°06'7517.0
2016-Jul-18 19:10N 40°42' W 010°07'13217.0
2016-Jul-18 11:22N 42°55' W 010°06'3012.5
2016-Jul-18 09:00N 43°24' W 010°00'28917.6 090 / 41011.9 0.0 0.517.015.417.0
2016-Jul-17 16:33N 47°40' W 006°47'1717.4
2016-Jul-17 15:33N 47°55' W 006°34'1818.0
2016-Jul-17 14:33N 48°11' W 006°22'1717.4
2016-Jul-17 13:33N 48°26' W 006°09'2216.6
2016-Jul-17 12:15N 48°45' W 005°54'1115.6
2016-Jul-17 11:34N 48°55' W 005°45'1616.3
2016-Jul-17 10:33N 49°03' W 005°24'1628.3
2016-Jul-17 10:00N 49°06' W 005°00'912.0 030 / 101022.8 5.4 1.518.016.416.0
2016-Jul-17 09:13N 49°15' W 004°55'1217.1
2016-Jul-17 08:33N 49°21' W 004°40'2416.9
2016-Jul-17 07:09N 49°32' W 004°08'1016.5
2016-Jul-17 06:32N 49°37' W 003°54'3417.0
2016-Jul-17 04:33N 49°54' W 003°09'1616.6
2016-Jul-17 03:33N 50°00' W 002°45'5517.2
2016-Jul-17 00:22N 50°16' W 001°23'2218.5
2016-Jul-16 23:09N 50°22' W 000°49'1017.7
2016-Jul-16 22:33N 50°25' W 000°33'1717.1
2016-Jul-16 21:33N 50°30' W 000°08'1717.1
2016-Jul-16 20:33N 50°35' E 000°18'3316.7
2016-Jul-16 18:33N 50°51' E 001°04'1716.9
2016-Jul-16 17:33N 51°02' E 001°24'1616.4
2016-Jul-16 16:33N 51°13' E 001°43'1817.7
2016-Jul-16 15:34N 51°28' E 001°57'1817.3
2016-Jul-16 14:31N 51°42' E 002°17'1717.5
2016-Jul-16 13:33N 51°54' E 002°35'12917.6
2016-Jul-16 06:14N 53°32' E 004°53'2615.4
2016-Jul-16 04:33N 53°41' E 005°34'1515.3
2016-Jul-16 03:34N 53°46' E 005°59'1615.8
2016-Jul-16 02:33N 53°50' E 006°24'1616.3
2016-Jul-16 01:34N 53°54' E 006°51'1816.8
2016-Jul-16 00:31N 53°58' E 007°20'1616.7
2016-Jul-15 23:33N 54°02' E 007°47'1616.4
2016-Jul-15 22:34N 54°00' E 008°14'1616.0
2016-Jul-15 21:33N 53°55' E 008°40'1212.4
2016-Jul-15 20:34N 53°51' E 009°00'1010.3
2016-Jul-15 19:33N 53°52' E 009°18'1313.2
2016-Jul-15 18:33N 53°41' E 009°30'1111.3
2016-Jul-15 17:33N 53°34' E 009°45'8 8.2
2016-Jul-15 16:34N 53°30' E 009°57'1 1.4
2016-Jul-15 15:30N 53°29' E 009°59'0 0.0
2016-Jul-15 14:33N 53°29' E 009°59'0 0.0
2016-Jul-15 13:33N 53°29' E 009°59'0 0.0
2016-Jul-15 12:33N 53°29' E 009°59'0 0.0
2016-Jul-15 11:33N 53°29' E 009°59'0 0.0
2016-Jul-15 10:33N 53°29' E 009°59'0 0.0
2016-Jul-15 09:33N 53°29' E 009°59'0 0.0
2016-Jul-15 08:33N 53°29' E 009°59'0 0.0
2016-Jul-15 07:33N 53°29' E 009°59'0 0.0
2016-Jul-15 06:33N 53°29' E 009°59'0 0.0
2016-Jul-15 05:33N 53°29' E 009°59'0 0.0
2016-Jul-15 04:33N 53°29' E 009°59'0 0.0
2016-Jul-15 03:33N 53°29' E 009°59'0 0.0
2016-Jul-15 02:33N 53°29' E 009°59'0 0.0
2016-Jul-15 01:33N 53°29' E 009°59'0 0.0
2016-Jul-15 00:33N 53°29' E 009°59'0 0.0
2016-Jul-14 23:33N 53°29' E 009°59'0 0.0
2016-Jul-14 22:33N 53°29' E 009°59'0 0.0
2016-Jul-14 21:33N 53°29' E 009°59'0 0.0
2016-Jul-14 20:33N 53°29' E 009°59'0 0.0
2016-Jul-14 19:33N 53°29' E 009°59'0 0.0
2016-Jul-14 18:33N 53°29' E 009°59'0 0.0
2016-Jul-14 17:33N 53°29' E 009°59'0 0.0
2016-Jul-14 16:33N 53°29' E 009°59'0 0.0
2016-Jul-14 15:33N 53°29' E 009°59'0 0.0
2016-Jul-14 14:33N 53°29' E 009°59'0 0.0
2016-Jul-14 13:33N 53°29' E 009°59'0 0.0
2016-Jul-14 12:33N 53°29' E 009°59'0 0.0
2016-Jul-14 11:33N 53°29' E 009°59'0 0.0
2016-Jul-14 10:33N 53°29' E 009°59'0 0.0
2016-Jul-14 09:33N 53°29' E 009°59'0 0.0
2016-Jul-14 08:33N 53°29' E 009°59'0 0.0
2016-Jul-14 07:33N 53°29' E 009°59'0 0.0
2016-Jul-14 06:33N 53°29' E 009°59'0 0.0
2016-Jul-14 05:33N 53°29' E 009°59'0 0.0
2016-Jul-14 04:33N 53°29' E 009°59'0 0.0
2016-Jul-14 03:33N 53°29' E 009°59'0 0.0
2016-Jul-14 02:33N 53°29' E 009°59'0 0.0
2016-Jul-14 01:33N 53°29' E 009°59'0 0.0
2016-Jul-14 00:33N 53°29' E 009°59'0 0.0
2016-Jul-13 23:33N 53°29' E 009°59'0 0.0
2016-Jul-13 22:33N 53°29' E 009°59'0 0.0
2016-Jul-13 21:33N 53°29' E 009°59'  
Track history (hours):
 
Tides and Currents Weather Stations Pressure Air Temp Water Temp Dewpoint Dewpoint Depression Visibility Wind Speed Wind Dir Waves Ship Positions

Rickmers New Orleans

Last reported at 2016-Jul-23 21:06 UTC. Time now 2016-Jul-24 03:01 UTC.
Position N 42°49' E 009°42'.

Length 192.9 m; beam 27.8 m; draft 11.2 m.

Type: Ship. MMSI: 538001922.

Date/timePositionNaut miles runAvg speedWind from/ knotsBaromVisibWave heightAir tempDewpointWater temp
2016-Jul-23 21:06N 42°49' E 009°42'712.3
2016-Jul-23 20:30N 42°56' E 009°38'1112.1
2016-Jul-23 19:33N 43°07' E 009°33'1211.6
2016-Jul-23 18:33N 43°18' E 009°28'1111.1
2016-Jul-23 17:33N 43°29' E 009°23'1211.7
2016-Jul-23 16:33N 43°40' E 009°18'1211.5
2016-Jul-23 15:33N 43°51' E 009°13'1212.1
2016-Jul-23 14:33N 44°02' E 009°07'1312.6
2016-Jul-23 13:33N 44°14' E 009°01'1110.9
2016-Jul-23 12:33N 44°24' E 008°55'1 1.3
2016-Jul-23 11:33N 44°24' E 008°53'0 0.0
2016-Jul-23 10:33N 44°24' E 008°53'0 0.0
2016-Jul-23 09:30N 44°24' E 008°53'0 0.0
2016-Jul-23 08:33N 44°24' E 008°53'0 0.0
2016-Jul-23 07:33N 44°24' E 008°53'0 0.0
2016-Jul-23 06:33N 44°24' E 008°53'0 0.0
2016-Jul-23 04:33N 44°24' E 008°53'0 0.0
2016-Jul-23 03:33N 44°24' E 008°53'0 0.0
2016-Jul-23 02:33N 44°24' E 008°53'0 0.0
2016-Jul-23 01:33N 44°24' E 008°53'0 0.0
2016-Jul-23 00:33N 44°24' E 008°53'0 0.0
2016-Jul-22 23:33N 44°24' E 008°53'0 0.0
2016-Jul-22 22:33N 44°24' E 008°53'0 0.0
2016-Jul-22 21:33N 44°24' E 008°53'0 0.0
2016-Jul-22 20:33N 44°24' E 008°53'0 0.0
2016-Jul-22 19:33N 44°24' E 008°53'0 0.0
2016-Jul-22 18:33N 44°24' E 008°53'0 0.0
2016-Jul-22 17:27N 44°24' E 008°53'0 0.0
2016-Jul-22 16:30N 44°24' E 008°53'0 0.0
2016-Jul-22 15:30N 44°24' E 008°53'0 0.0
2016-Jul-22 14:33N 44°24' E 008°53'0 0.0
2016-Jul-22 13:33N 44°24' E 008°53'0 0.0
2016-Jul-22 12:33N 44°24' E 008°53'0 0.0
2016-Jul-22 11:33N 44°24' E 008°53'0 0.0
2016-Jul-22 10:33N 44°24' E 008°53'0 0.0
2016-Jul-22 09:33N 44°24' E 008°53'0 0.0
2016-Jul-22 08:33N 44°24' E 008°53'0 0.0
2016-Jul-22 07:33N 44°24' E 008°53'0 0.0
2016-Jul-22 04:30N 44°24' E 008°53'0 0.3
2016-Jul-22 03:33N 44°24' E 008°54'6 5.6
2016-Jul-22 02:34N 44°20' E 008°59'9 9.4
2016-Jul-22 01:33N 44°13' E 008°49'1111.4
2016-Jul-22 00:34N 44°06' E 008°37'1716.3
2016-Jul-21 23:30N 43°54' E 008°19'1516.0
2016-Jul-21 22:32N 43°44' E 008°04'1616.1
2016-Jul-21 21:31N 43°33' E 007°47'1616.0
2016-Jul-21 20:30N 43°22' E 007°30'7916.1
2016-Jul-21 15:33N 42°28' E 006°10'1716.5
2016-Jul-21 14:34N 42°17' E 005°54'1616.4
2016-Jul-21 13:34N 42°06' E 005°37'1616.3
2016-Jul-21 12:33N 41°55' E 005°21'2216.3
2016-Jul-21 11:11N 41°40' E 004°59'7816.1
2016-Jul-21 06:20N 40°48' E 003°42'1316.4
2016-Jul-21 05:33N 40°39' E 003°30'1716.5
2016-Jul-21 04:33N 40°28' E 003°14'1616.5
2016-Jul-21 03:33N 40°17' E 002°58'1716.7
2016-Jul-21 02:33N 40°06' E 002°42'1716.6
2016-Jul-21 01:34N 39°56' E 002°24'1717.4
2016-Jul-21 00:33N 39°44' E 002°07'1817.4
2016-Jul-20 23:33N 39°33' E 001°50'1717.4
2016-Jul-20 22:33N 39°22' E 001°32'2017.3
2016-Jul-20 21:23N 39°09' E 001°13'4716.5
2016-Jul-20 18:33N 38°31' E 000°36'1716.9
2016-Jul-20 17:33N 38°19' E 000°22'1716.7
2016-Jul-20 16:33N 38°06' E 000°08'1716.7
2016-Jul-20 15:33N 37°53' W 000°05'1717.3
2016-Jul-20 14:34N 37°40' W 000°19'1717.3
2016-Jul-20 13:33N 37°27' W 000°34'2017.0
2016-Jul-20 12:23N 37°14' W 000°53'1817.1
2016-Jul-20 11:20N 37°03' W 001°11'9041.5
2016-Jul-20 09:10N 36°18' W 002°48'2513.9
2016-Jul-20 07:20N 36°22' W 002°17'14117.0
2016-Jul-19 23:05N 36°00' W 005°09'816.3
2016-Jul-19 22:34N 35°59' W 005°20'20615.7
2016-Jul-19 09:23N 36°44' W 009°30'3116.5
2016-Jul-19 07:31N 37°14' W 009°41'5017.0
2016-Jul-19 04:33N 38°03' W 009°55'1717.3
2016-Jul-19 03:33N 38°19' W 010°00'1817.8
2016-Jul-19 02:33N 38°37' W 010°05'1917.4
2016-Jul-19 01:26N 38°56' W 010°04'1516.5
2016-Jul-19 00:32N 39°11' W 010°06'1717.1
2016-Jul-18 23:33N 39°28' W 010°06'7517.0
2016-Jul-18 19:10N 40°42' W 010°07'13217.0
2016-Jul-18 11:22N 42°55' W 010°06'3012.5
2016-Jul-18 09:00N 43°24' W 010°00'28917.6 090 / 41011.9 0.0 0.517.015.417.0
2016-Jul-17 16:33N 47°40' W 006°47'1717.4
2016-Jul-17 15:33N 47°55' W 006°34'1818.0
2016-Jul-17 14:33N 48°11' W 006°22'1717.4
2016-Jul-17 13:33N 48°26' W 006°09'2216.6
2016-Jul-17 12:15N 48°45' W 005°54'1115.6
2016-Jul-17 11:34N 48°55' W 005°45'1616.3
2016-Jul-17 10:33N 49°03' W 005°24'1628.3
2016-Jul-17 10:00N 49°06' W 005°00'912.0 030 / 101022.8 5.4 1.518.016.416.0
2016-Jul-17 09:13N 49°15' W 004°55'1217.1
2016-Jul-17 08:33N 49°21' W 004°40'2416.9
2016-Jul-17 07:09N 49°32' W 004°08'1016.5
2016-Jul-17 06:32N 49°37' W 003°54'3417.0
2016-Jul-17 04:33N 49°54' W 003°09'1616.6
2016-Jul-17 03:33N 50°00' W 002°45'5517.2
2016-Jul-17 00:22N 50°16' W 001°23'2218.5
2016-Jul-16 23:09N 50°22' W 000°49'1017.7
2016-Jul-16 22:33N 50°25' W 000°33'1717.1
2016-Jul-16 21:33N 50°30' W 000°08'1717.1
2016-Jul-16 20:33N 50°35' E 000°18'3316.7
2016-Jul-16 18:33N 50°51' E 001°04'1716.9
2016-Jul-16 17:33N 51°02' E 001°24'1616.4
2016-Jul-16 16:33N 51°13' E 001°43'1817.7
2016-Jul-16 15:34N 51°28' E 001°57'1817.3
2016-Jul-16 14:31N 51°42' E 002°17'1717.5
2016-Jul-16 13:33N 51°54' E 002°35'12917.6
2016-Jul-16 06:14N 53°32' E 004°53'2615.4
2016-Jul-16 04:33N 53°41' E 005°34'1515.3
2016-Jul-16 03:34N 53°46' E 005°59'1615.8
2016-Jul-16 02:33N 53°50' E 006°24'1616.3
2016-Jul-16 01:34N 53°54' E 006°51'1816.8
2016-Jul-16 00:31N 53°58' E 007°20'1616.7
2016-Jul-15 23:33N 54°02' E 007°47'1616.4
2016-Jul-15 22:34N 54°00' E 008°14'1616.0
2016-Jul-15 21:33N 53°55' E 008°40'1212.4
2016-Jul-15 20:34N 53°51' E 009°00'1010.3
2016-Jul-15 19:33N 53°52' E 009°18'1313.2
2016-Jul-15 18:33N 53°41' E 009°30'1111.3
2016-Jul-15 17:33N 53°34' E 009°45'8 8.2
2016-Jul-15 16:34N 53°30' E 009°57'1 1.4
2016-Jul-15 15:30N 53°29' E 009°59'0 0.0
2016-Jul-15 14:33N 53°29' E 009°59'0 0.0
2016-Jul-15 13:33N 53°29' E 009°59'0 0.0
2016-Jul-15 12:33N 53°29' E 009°59'0 0.0
2016-Jul-15 11:33N 53°29' E 009°59'0 0.0
2016-Jul-15 10:33N 53°29' E 009°59'0 0.0
2016-Jul-15 09:33N 53°29' E 009°59'0 0.0
2016-Jul-15 08:33N 53°29' E 009°59'0 0.0
2016-Jul-15 07:33N 53°29' E 009°59'0 0.0
2016-Jul-15 06:33N 53°29' E 009°59'0 0.0
2016-Jul-15 05:33N 53°29' E 009°59'0 0.0
2016-Jul-15 04:33N 53°29' E 009°59'0 0.0
2016-Jul-15 03:33N 53°29' E 009°59'0 0.0
2016-Jul-15 02:33N 53°29' E 009°59'0 0.0
2016-Jul-15 01:33N 53°29' E 009°59'0 0.0
2016-Jul-15 00:33N 53°29' E 009°59'0 0.0
2016-Jul-14 23:33N 53°29' E 009°59'0 0.0
2016-Jul-14 22:33N 53°29' E 009°59'0 0.0
2016-Jul-14 21:33N 53°29' E 009°59'0 0.0
2016-Jul-14 20:33N 53°29' E 009°59'0 0.0
2016-Jul-14 19:33N 53°29' E 009°59'0 0.0
2016-Jul-14 18:33N 53°29' E 009°59'0 0.0
2016-Jul-14 17:33N 53°29' E 009°59'0 0.0
2016-Jul-14 16:33N 53°29' E 009°59'0 0.0
2016-Jul-14 15:33N 53°29' E 009°59'0 0.0
2016-Jul-14 14:33N 53°29' E 009°59'0 0.0
2016-Jul-14 13:33N 53°29' E 009°59'0 0.0
2016-Jul-14 12:33N 53°29' E 009°59'0 0.0
2016-Jul-14 11:33N 53°29' E 009°59'0 0.0
2016-Jul-14 10:33N 53°29' E 009°59'0 0.0
2016-Jul-14 09:33N 53°29' E 009°59'0 0.0
2016-Jul-14 08:33N 53°29' E 009°59'0 0.0
2016-Jul-14 07:33N 53°29' E 009°59'0 0.0
2016-Jul-14 06:33N 53°29' E 009°59'0 0.0
2016-Jul-14 05:33N 53°29' E 009°59'0 0.0
2016-Jul-14 04:33N 53°29' E 009°59'0 0.0
2016-Jul-14 03:33N 53°29' E 009°59'0 0.0
2016-Jul-14 02:33N 53°29' E 009°59'0 0.0
2016-Jul-14 01:33N 53°29' E 009°59'0 0.0
2016-Jul-14 00:33N 53°29' E 009°59'0 0.0
2016-Jul-13 23:33N 53°29' E 009°59'0 0.0
2016-Jul-13 22:33N 53°29' E 009°59'0 0.0
2016-Jul-13 21:33N 53°29' E 009°59'  

Dump ship's entire track history